Flight Track Log - Related Links

Times and Time Zones

All times are in EST time to prevent confusion due to time zone crossing. See the EJA922 flight status page for this flight to view local times or setup timezone preferences in your user account.

Time Position Orientation Groundspeed Altitude Reporting Facility
EST Latitude Longitude Course Direction KTS MPH feet Rate Location/Type
Thu 04:10:58 PM 31.2464 -81.3203 66° East 344 396 6,300  Level Jacksonville Center
Thu 04:11:58 PM 31.2747 -81.2469 66° East 300 345 9,500 3,050 Climbing Jacksonville Center
Thu 04:12:58 PM 31.3558 -81.2092 22° Northeast 278 320 12,400 3,000 Climbing Jacksonville Center
Thu 04:13:58 PM 31.4392 -81.2075 North 301 346 15,500 3,050 Climbing Jacksonville Center
Thu 04:14:58 PM 31.5436 -81.2081 360° North 323 372 18,500 2,800 Climbing Jacksonville Center
Thu 04:15:58 PM 31.6417 -81.2064 North 336 387 21,100 2,250 Climbing Jacksonville Center
Thu 04:16:58 PM 31.7336 -81.2069 360° North 355 409 23,000 2,200 Climbing Jacksonville Center
Thu 04:17:58 PM 31.8519 -81.1658 16° North 394 453 25,500 2,250 Climbing Jacksonville Center
Thu 04:18:58 PM 31.9453 -81.1103 27° Northeast 404 465 27,500 2,150 Climbing Jacksonville Center
Thu 04:19:58 PM 32.0653 -81.0319 29° Northeast 416 479 29,800 1,950 Climbing Jacksonville Center
Thu 04:20:58 PM 32.1667 -80.9733 26° Northeast 445 512 31,400 1,600 Climbing Jacksonville Center
Thu 04:21:58 PM 32.2947 -80.8944 28° Northeast 460 529 33,000 800 Climbing Jacksonville Center
Thu 04:22:58 PM 32.4208 -80.8156 28° Northeast 496 571 33,000  Level Jacksonville Center
Thu 04:23:58 PM 32.5367 -80.7414 28° Northeast 508 585 33,000  Level Jacksonville Center
Thu 04:24:58 PM 32.6647 -80.6617 28° Northeast 514 592 33,000  Level Jacksonville Center
Thu 04:25:58 PM 32.7925 -80.5819 28° Northeast 514 592 33,000  Level Jacksonville Center
Thu 04:26:58 PM 32.9164 -80.5047 28° Northeast 506 582 33,000  Level Jacksonville Center
Thu 04:27:58 PM 33.0442 -80.4244 28° Northeast 506 582 33,000  Level Jacksonville Center
Thu 04:28:58 PM 33.1803 -80.3389 28° Northeast 507 583 33,000  Level Jacksonville Center
Thu 04:29:58 PM 33.3061 -80.2581 28° Northeast 507 583 33,000  Level Jacksonville Center
Thu 04:30:58 PM 33.4317 -80.1772 28° Northeast 507 583 33,000  Level Jacksonville Center
Thu 04:31:58 PM 33.5550 -80.0986 28° Northeast 507 583 33,000  Level Jacksonville Center
Thu 04:32:58 PM 33.6786 -80.0200 28° Northeast 501 577 33,000  Level Jacksonville Center
Thu 04:33:58 PM 33.8019 -79.9408 30° Northeast 501 577 33,000  Level Jacksonville Center
Thu 04:34:00 PM 33.7877 -79.9454 30° Northeast  Level FlightAware Approximate
Thu 04:34:58 PM 33.9231 -79.8567 30° Northeast 501 577 33,000  Level Jacksonville Center
Thu 04:35:58 PM 34.0483 -79.7797 27° Northeast 501 577 33,000  Level Jacksonville Center
Thu 04:36:58 PM 34.1736 -79.6975 28° Northeast 501 577 33,000  Level Jacksonville Center
Thu 04:39:13 PM 34.4467 -79.5458 25° Northeast 506 582 33,000  Level Washington Center
Thu 04:40:11 PM 34.5761 -79.4789 23° Northeast 501 577 33,000  Level Washington Center
Thu 04:41:12 PM 34.7075 -79.4094 23° Northeast 507 583 33,000 -344 Level Washington Center
Thu 04:42:13 PM 34.8392 -79.3397 23° Northeast 502 578 32,300 -1,068 Descending Washington Center
Thu 04:43:10 PM 34.9708 -79.2697 24° Northeast 508 585 30,900 -1,424 Descending Washington Center
Thu 04:44:11 PM 35.1064 -79.1972 24° Northeast 513 590 29,500 -1,279 Descending Washington Center
Thu 04:45:12 PM 35.2422 -79.1269 23° Northeast 518 596 28,300 -1,131 Descending Washington Center
Thu 04:46:13 PM 35.3800 -79.0514 24° Northeast 523 602 27,200 -655 Descending Washington Center
Thu 04:47:11 PM 35.5114 -78.9833 23° Northeast 518 596 27,000 -101 Descending Washington Center
Thu 04:48:12 PM 35.6383 -78.9144 24° Northeast 512 589 27,000 -443 Level Washington Center
Thu 04:49:13 PM 35.7803 -78.8358 24° Northeast 506 582 26,100 -1,008 Descending Washington Center
Thu 04:50:11 PM 35.9156 -78.7722 21° North 501 577 25,000 -1,017 Descending Washington Center
Thu 04:51:11 PM 36.0481 -78.7339 13° North 501 577 24,100 -496 Descending Washington Center
Thu 04:52:12 PM 36.1825 -78.6981 12° North 496 571 24,000 -49 Descending Washington Center
Thu 04:53:13 PM 36.3108 -78.6594 14° North 485 558 24,000  Level Washington Center
Thu 04:54:11 PM 36.4433 -78.6233 12° North 480 552 24,000  Level Washington Center
Thu 04:55:12 PM 36.5736 -78.5844 13° North 480 552 24,000 -443 Level Washington Center
Thu 04:56:13 PM 36.7061 -78.5428 14° North 480 552 23,100 -1,008 Descending Washington Center
Thu 04:57:11 PM 36.8194 -78.5083 14° North 475 547 22,000 -1,271 Descending Washington Center
Thu 04:58:11 PM 36.9456 -78.4714 13° North 464 534 20,600 -1,550 Descending Washington Center
Thu 04:59:11 PM 37.0694 -78.4397 12° North 459 528 18,900 -1,934 Descending Washington Center
Thu 05:00:12 PM 37.2031 -78.4367 North 442 509 16,700 -2,132 Descending Washington Center
Thu 05:01:12 PM 37.3156 -78.4408 358° North 425 489 14,600 -1,785 Descending Washington Center
Thu 05:02:13 PM 37.4261 -78.4425 359° North 402 463 13,100 -807 Descending Washington Center
Thu 05:03:11 PM 37.5283 -78.4436 360° North 402 463 13,000 -50 Descending Washington Center
Thu 05:04:12 PM 37.6344 -78.4475 358° North 397 457 13,000 -492 Level Washington Center
Thu 05:05:13 PM 37.7325 -78.4486 359° North 374 430 12,000 -1,190 Descending Washington Center
Thu 05:06:13 PM 37.8161 -78.4492 360° North 333 383 10,600 -1,881 Descending Washington Center
Thu 05:07:11 PM 37.9039 -78.4419 North 297 342 8,300 -1,983 Descending Washington Center
Thu 05:08:11 PM 37.9756 -78.4053 22° Northeast 279 321 6,700 -1,636 Descending Washington Center
Thu 05:09:12 PM 38.0453 -78.3683 23° Northeast 267 307 5,000 -1,091 Descending Washington Center
Thu 05:10:12 PM 38.1064 -78.3361 23° Northeast 253 291 4,500 -992 Descending Washington Center
Thu 05:11:13 PM 38.1614 -78.3092 21° North 210 242 3,000 -893 Descending Washington Center
Thu 05:12:13 PM 38.1961 -78.3422 323° Northwest 167 192 2,700 -407 Descending Washington Center
Thu 05:13:11 PM 38.2156 -78.3983 294° West 161 185 2,200 -571 Descending Washington Center
Thu 05:15:01 PM 38.1667 -78.4333 209° Southwest 114 131 1,100 -600 Descending Potomac TRACON
Thu 05:17:00 PM 38.1333 -78.4500 261° West  Level FlightAware Approximate
Thu 05:24:00 PM 38.1396 -78.4523 261° West  Level Estimated
Thu 05:25:00 PM 38.1333 -78.4500 261° West  Level FlightAware Approximate
Thu 05:26:00 PM 38.1396 -78.4523 261° West  Level Estimated
Thu 05:27:00 PM 38.1333 -78.4500 261° West  Level FlightAware Approximate
Thu 05:28:00 PM 38.1396 -78.4523 261° West  Level Estimated
Thu 05:29:00 PM 38.1333 -78.4500 261° West  Level FlightAware Approximate

Login

Don't have an account? Register now (free) for customized features, flight alerts, and more!